createdAt,value
2018-05-26T00:00:32.487Z,98583.98
2018-05-26T00:02:58.879Z,98582.78
2018-05-26T00:05:25.282Z,98586.31
2018-05-26T00:07:52.477Z,98585.13
2018-05-26T00:10:19.182Z,98580.56
2018-05-26T00:12:45.543Z,98592.34
2018-05-26T00:15:11.949Z,98601.03
2018-05-26T00:17:38.378Z,98601.95
2018-05-26T00:20:04.761Z,98597.50
2018-05-26T00:22:31.178Z,98594.62
2018-05-26T00:24:57.652Z,98597.45
2018-05-26T00:27:24.106Z,98605.09
2018-05-26T00:29:50.851Z,98600.15
2018-05-26T00:32:17.239Z,98598.19
2018-05-26T00:34:43.621Z,98600.31
2018-05-26T00:37:10.041Z,98601.63
2018-05-26T00:39:37.196Z,98604.31
2018-05-26T00:42:03.600Z,98602.13
2018-05-26T00:44:29.988Z,98597.23
2018-05-26T00:46:56.509Z,98602.51
2018-05-26T00:49:22.901Z,98609.80
2018-05-26T00:51:49.565Z,98608.28
2018-05-26T00:54:16.207Z,98605.89
2018-05-26T00:56:42.579Z,98596.96
2018-05-26T00:59:08.966Z,98598.44
2018-05-26T01:01:36.091Z,98591.71
2018-05-26T01:04:02.860Z,98596.02
2018-05-26T01:06:29.358Z,98596.72
2018-05-26T01:08:56.104Z,98599.21
2018-05-26T01:11:22.536Z,98599.99
2018-05-26T01:13:48.909Z,98600.14
2018-05-26T01:16:15.339Z,98596.96
2018-05-26T01:18:41.765Z,98595.78
2018-05-26T01:21:08.241Z,98588.27
2018-05-26T01:23:34.772Z,98594.38
2018-05-26T01:26:01.248Z,98594.20
2018-05-26T01:28:28.470Z,98593.81
2018-05-26T01:30:54.915Z,98594.56
2018-05-26T01:33:21.283Z,98599.04
2018-05-26T01:35:47.845Z,98595.00
2018-05-26T01:38:14.243Z,98598.33
2018-05-26T01:40:41.441Z,98596.14
2018-05-26T01:43:08.024Z,98589.70
2018-05-26T01:45:35.180Z,98586.09
2018-05-26T01:48:02.378Z,98581.77
2018-05-26T01:50:28.884Z,98589.23
2018-05-26T01:52:55.393Z,98590.77
2018-05-26T01:55:22.589Z,98590.23
2018-05-26T01:57:49.003Z,98579.41
2018-05-26T02:00:15.440Z,98583.60
2018-05-26T02:02:42.162Z,98581.27
2018-05-26T02:05:08.648Z,98579.35
2018-05-26T02:07:35.334Z,98579.96
2018-05-26T02:10:02.513Z,98577.94
2018-05-26T02:12:29.016Z,98580.12
2018-05-26T02:14:55.379Z,98580.55
2018-05-26T02:17:21.811Z,98579.78
2018-05-26T02:19:48.173Z,98581.06
2018-05-26T02:22:14.513Z,98579.92
2018-05-26T02:24:40.912Z,98580.66
2018-05-26T02:27:07.379Z,98581.21
2018-05-26T02:29:33.843Z,98588.83
2018-05-26T02:32:00.302Z,98587.05
2018-05-26T02:34:26.734Z,98592.31
2018-05-26T02:36:53.184Z,98595.97
2018-05-26T02:39:19.674Z,98594.73
2018-05-26T02:41:46.315Z,98598.73
2018-05-26T02:44:13.437Z,98600.60
2018-05-26T02:46:39.875Z,98594.61
2018-05-26T02:49:07.131Z,98598.13
2018-05-26T02:51:34.267Z,98600.72
2018-05-26T02:54:00.697Z,98595.73
2018-05-26T02:56:27.065Z,98597.17
2018-05-26T02:58:54.269Z,98599.83
2018-05-26T03:01:22.049Z,98598.13
2018-05-26T03:03:49.108Z,98600.84
2018-05-26T03:06:22.625Z,98599.77
2018-05-26T03:08:55.157Z,98605.52
2018-05-26T03:11:27.712Z,98607.70
2018-05-26T03:14:00.268Z,98610.33
2018-05-26T03:16:26.711Z,98613.63
2018-05-26T03:18:53.358Z,98614.77
2018-05-26T03:21:19.750Z,98616.91
2018-05-26T03:23:46.153Z,98619.60
2018-05-26T03:26:12.835Z,98617.16
2018-05-26T03:28:39.245Z,98614.02
2018-05-26T03:31:06.454Z,98620.20
2018-05-26T03:33:32.852Z,98620.42
2018-05-26T03:35:59.310Z,98623.84
2018-05-26T03:38:26.026Z,98622.55
2018-05-26T03:40:52.431Z,98619.08
2018-05-26T03:43:19.661Z,98632.62
2018-05-26T03:45:46.041Z,98629.37
2018-05-26T03:48:12.470Z,98625.39
2018-05-26T03:50:38.986Z,98632.30
2018-05-26T03:53:06.101Z,98631.13
2018-05-26T03:58:56.843Z,98627.61
2018-05-26T04:01:23.258Z,98631.84
2018-05-26T04:03:49.689Z,98624.58
2018-05-26T04:06:16.075Z,98625.45
2018-05-26T04:08:42.809Z,98636.06
2018-05-26T04:11:09.194Z,98636.97
2018-05-26T04:13:35.894Z,98628.58
2018-05-26T04:16:02.277Z,98634.96
2018-05-26T04:18:28.685Z,98635.31
2018-05-26T04:20:55.239Z,98641.77
2018-05-26T04:23:21.643Z,98632.54
2018-05-26T04:25:48.351Z,98640.77
2018-05-26T04:28:14.749Z,98639.39
2018-05-26T04:30:41.182Z,98647.51
2018-05-26T04:33:08.377Z,98641.05
2018-05-26T04:35:34.787Z,98645.80
2018-05-26T04:38:01.938Z,98653.43
2018-05-26T04:40:29.099Z,98658.86
2018-05-26T04:42:56.560Z,98661.38
2018-05-26T04:45:22.998Z,98673.89
2018-05-26T04:47:49.369Z,98668.10
2018-05-26T04:50:15.815Z,98665.12
2018-05-26T04:52:42.280Z,98657.85
2018-05-26T04:55:09.425Z,98657.85
2018-05-26T04:57:36.681Z,98666.58
2018-05-26T05:00:03.840Z,98672.09
2018-05-26T05:02:30.996Z,98673.56
2018-05-26T05:04:57.408Z,98672.87
2018-05-26T05:07:24.672Z,98669.90
2018-05-26T05:09:51.826Z,98679.83
2018-05-26T05:12:18.262Z,98683.36
2018-05-26T05:14:44.666Z,98686.72
2018-05-26T05:17:11.049Z,98684.94
2018-05-26T05:19:37.512Z,98684.84
2018-05-26T05:22:03.937Z,98684.21
2018-05-26T05:24:30.298Z,98692.22
2018-05-26T05:26:57.433Z,98691.58
2018-05-26T05:29:23.896Z,98692.16
2018-05-26T05:31:51.144Z,98693.60
2018-05-26T05:34:18.509Z,98689.42
2018-05-26T05:36:45.657Z,98694.13
2018-05-26T05:39:12.193Z,98690.73
2018-05-26T05:41:38.584Z,98686.11
2018-05-26T05:44:05.003Z,98684.44
2018-05-26T05:46:31.386Z,98689.57
2018-05-26T05:48:58.615Z,98688.53
2018-05-26T05:51:25.165Z,98691.30
2018-05-26T05:53:52.289Z,98695.63
2018-05-26T05:56:19.495Z,98691.27
2018-05-26T05:58:45.908Z,98696.60
2018-05-26T06:01:13.059Z,98688.95
2018-05-26T06:03:39.803Z,98692.60
2018-05-26T06:06:06.205Z,98698.70
2018-05-26T06:08:32.578Z,98705.02
2018-05-26T06:10:58.959Z,98699.63
2018-05-26T06:13:26.142Z,98697.58
2018-05-26T06:15:53.298Z,98704.77
2018-05-26T06:18:20.039Z,98701.89
2018-05-26T06:20:46.776Z,98702.14
2018-05-26T06:23:14.233Z,98707.05
2018-05-26T06:25:40.682Z,98711.25
2018-05-26T06:28:07.116Z,98715.80
2018-05-26T06:30:33.694Z,98719.95
2018-05-26T06:33:00.140Z,98723.45
2018-05-26T06:35:26.808Z,98722.48
2018-05-26T06:37:53.961Z,98724.95
2018-05-26T06:40:20.386Z,98722.50
2018-05-26T06:42:47.539Z,98718.11
2018-05-26T06:45:14.694Z,98715.44
2018-05-26T06:47:41.150Z,98708.64
2018-05-26T06:50:07.961Z,98713.45
2018-05-26T06:52:35.205Z,98710.53
2018-05-26T06:55:02.318Z,98711.56
2018-05-26T06:57:29.009Z,98703.01
2018-05-26T06:59:55.373Z,98706.23
2018-05-26T07:02:21.750Z,98704.41
2018-05-26T07:04:48.505Z,98702.22
2018-05-26T07:07:15.713Z,98706.83
2018-05-26T07:09:42.080Z,98695.68
2018-05-26T07:12:09.227Z,98707.41
2018-05-26T07:14:36.697Z,98707.91
2018-05-26T07:17:03.809Z,98704.45
2018-05-26T07:19:30.297Z,98703.39
2018-05-26T07:21:56.849Z,98701.44
2018-05-26T07:24:23.274Z,98705.16
2018-05-26T07:26:49.669Z,98707.66
2018-05-26T07:29:16.800Z,98695.99
2018-05-26T07:31:43.219Z,98698.74
2018-05-26T07:34:09.577Z,98705.68
2018-05-26T07:36:35.992Z,98697.98
2018-05-26T07:39:02.516Z,98700.00
2018-05-26T07:41:28.993Z,98698.64
2018-05-26T07:43:56.150Z,98696.49
2018-05-26T07:46:22.514Z,98703.16
2018-05-26T07:48:48.890Z,98698.37
2018-05-26T07:51:16.030Z,98706.23
2018-05-26T07:53:43.220Z,98702.87
2018-05-26T07:56:09.657Z,98704.35
2018-05-26T07:58:36.036Z,98703.17
2018-05-26T08:01:02.418Z,98702.59
2018-05-26T08:03:28.877Z,98704.81
2018-05-26T08:05:55.252Z,98707.99
2018-05-26T08:08:21.645Z,98707.05
2018-05-26T08:10:48.061Z,98710.75
2018-05-26T08:13:14.473Z,98710.56
2018-05-26T08:15:41.621Z,98712.09
2018-05-26T08:18:08.050Z,98712.09
2018-05-26T08:20:35.261Z,98717.38
2018-05-26T08:23:01.665Z,98722.25
2018-05-26T08:25:28.293Z,98720.31
2018-05-26T08:27:54.763Z,98725.74
2018-05-26T08:30:21.214Z,98728.11
2018-05-26T08:32:47.724Z,98723.91
2018-05-26T08:35:14.081Z,98716.12
2018-05-26T08:37:40.447Z,98722.72
2018-05-26T08:40:07.181Z,98720.81
2018-05-26T08:42:33.632Z,98716.58
2018-05-26T08:45:00.057Z,98722.33
2018-05-26T08:47:26.422Z,98719.44
2018-05-26T08:49:52.887Z,98726.27
2018-05-26T08:52:19.234Z,98725.20
2018-05-26T08:54:46.825Z,98729.19
2018-05-26T08:57:13.295Z,98731.07
2018-05-26T08:59:39.702Z,98727.94
2018-05-26T09:02:06.098Z,98729.50
2018-05-26T09:04:33.255Z,98730.59
2018-05-26T09:06:59.721Z,98733.75
2018-05-26T09:09:26.217Z,98731.91
2018-05-26T09:11:53.346Z,98728.91
2018-05-26T09:14:19.687Z,98734.14
2018-05-26T09:16:46.835Z,98733.42
2018-05-26T09:19:13.945Z,98731.41
2018-05-26T09:21:40.438Z,98728.19
2018-05-26T09:24:07.167Z,98720.11
2018-05-26T09:26:34.270Z,98722.58
2018-05-26T09:29:00.641Z,98721.55
2018-05-26T09:31:27.730Z,98722.78
2018-05-26T09:33:54.239Z,98719.53
2018-05-26T09:36:20.693Z,98726.50
2018-05-26T09:38:47.096Z,98725.11
2018-05-26T09:41:14.264Z,98729.20
2018-05-26T09:43:40.755Z,98719.48
2018-05-26T09:46:07.093Z,98721.11
2018-05-26T09:48:33.529Z,98724.03
2018-05-26T09:53:53.157Z,98725.21
2018-05-26T09:56:19.519Z,98715.90
2018-05-26T09:58:45.863Z,98714.70
2018-05-26T10:01:12.293Z,98708.09
2018-05-26T10:03:38.669Z,98706.52
2018-05-26T10:06:05.782Z,98707.83
2018-05-26T10:08:32.141Z,98705.70
2018-05-26T10:10:59.227Z,98711.97
2018-05-26T10:13:25.683Z,98704.16
2018-05-26T10:15:52.131Z,98706.79
2018-05-26T10:18:18.519Z,98698.85
2018-05-26T10:20:44.913Z,98704.70
2018-05-26T10:23:12.228Z,98706.81
2018-05-26T10:25:38.612Z,98702.31
2018-05-26T10:28:05.758Z,98699.17
2018-05-26T10:30:33.017Z,98697.75
2018-05-26T10:33:00.236Z,98691.83
2018-05-26T10:35:26.703Z,98688.16
2018-05-26T10:37:53.145Z,98696.44
2018-05-26T10:40:19.617Z,98698.23
2018-05-26T10:42:46.099Z,98702.44
2018-05-26T10:45:13.201Z,98703.66
2018-05-26T10:47:39.581Z,98704.87
2018-05-26T10:50:06.053Z,98709.11
2018-05-26T10:52:32.495Z,98713.12
2018-05-26T10:54:58.923Z,98713.36
2018-05-26T10:57:25.344Z,98707.61
2018-05-26T10:59:51.720Z,98711.95
2018-05-26T11:02:18.081Z,98712.23
2018-05-26T11:04:44.482Z,98714.75
2018-05-26T11:07:10.892Z,98718.81
2018-05-26T11:09:37.349Z,98717.88
2018-05-26T11:12:04.983Z,98717.41
2018-05-26T11:14:31.451Z,98718.58
2018-05-26T11:16:58.706Z,98713.47
2018-05-26T11:19:25.924Z,98713.58
2018-05-26T11:21:52.447Z,98714.11
2018-05-26T11:24:19.065Z,98715.38
2018-05-26T11:26:45.375Z,98710.34
2018-05-26T11:29:11.801Z,98703.23
2018-05-26T11:31:38.931Z,98710.34
2018-05-26T11:34:05.401Z,98703.47
2018-05-26T11:36:31.921Z,98706.61
2018-05-26T11:38:59.034Z,98705.91
2018-05-26T11:41:25.722Z,98707.83
2018-05-26T11:43:52.929Z,98701.50
2018-05-26T11:46:19.327Z,98702.02
2018-05-26T11:48:45.688Z,98704.47
2018-05-26T11:51:12.054Z,98704.98
2018-05-26T11:53:39.518Z,98706.17
2018-05-26T11:56:05.973Z,98713.41
2018-05-26T11:58:32.378Z,98708.19
2018-05-26T12:00:59.525Z,98709.80
2018-05-26T12:03:26.884Z,98706.30
2018-05-26T12:05:54.082Z,98699.65
2018-05-26T12:08:20.500Z,98699.80
2018-05-26T12:10:46.996Z,98692.81
2018-05-26T12:13:13.332Z,98695.16
2018-05-26T12:15:40.465Z,98692.20
2018-05-26T12:18:07.614Z,98691.87
2018-05-26T12:20:34.713Z,98688.31
2018-05-26T12:23:01.186Z,98688.15
2018-05-26T12:25:27.598Z,98685.17
2018-05-26T12:27:54.248Z,98687.19
2018-05-26T12:30:20.728Z,98692.36
2018-05-26T12:32:47.114Z,98685.84
2018-05-26T12:35:13.658Z,98687.81
2018-05-26T12:37:40.320Z,98684.41
2018-05-26T12:40:07.536Z,98682.37
2018-05-26T12:42:33.970Z,98675.73
2018-05-26T12:45:00.421Z,98672.56
2018-05-26T12:47:27.623Z,98666.94
2018-05-26T12:49:54.332Z,98674.76
2018-05-26T12:52:21.526Z,98676.22
2018-05-26T12:54:48.277Z,98679.89
2018-05-26T12:57:14.657Z,98679.42
2018-05-26T12:59:41.790Z,98679.47
2018-05-26T13:02:09.055Z,98677.41
2018-05-26T13:04:35.438Z,98670.84
2018-05-26T13:07:01.888Z,98672.17
2018-05-26T13:09:29.025Z,98676.91
2018-05-26T13:11:55.510Z,98664.89
2018-05-26T13:14:21.891Z,98659.31
2018-05-26T13:16:48.396Z,98652.00
2018-05-26T13:19:14.961Z,98655.30
2018-05-26T13:21:41.389Z,98652.61
2018-05-26T13:24:07.942Z,98655.61
2018-05-26T13:26:34.303Z,98658.49
2018-05-26T13:29:01.625Z,98654.32
2018-05-26T13:31:28.782Z,98657.84
2018-05-26T13:33:55.170Z,98650.51
2018-05-26T13:36:22.194Z,98649.59
2018-05-26T13:38:48.606Z,98655.97
2018-05-26T13:41:15.737Z,98658.90
2018-05-26T13:43:42.105Z,98656.64
2018-05-26T13:46:09.254Z,98658.14
2018-05-26T13:48:36.358Z,98660.77
2018-05-26T13:51:02.776Z,98657.86
2018-05-26T13:53:29.314Z,98658.19
2018-05-26T13:55:55.706Z,98659.18
2018-05-26T13:58:22.338Z,98661.84
2018-05-26T14:00:49.695Z,98650.66
2018-05-26T14:03:16.795Z,98658.95
2018-05-26T14:05:43.169Z,98652.78
2018-05-26T14:08:10.503Z,98657.47
2018-05-26T14:10:36.837Z,98654.84
2018-05-26T14:13:03.204Z,98647.23
2018-05-26T14:15:29.566Z,98646.44
2018-05-26T14:17:55.994Z,98649.29
2018-05-26T14:20:22.423Z,98647.45
2018-05-26T14:22:48.786Z,98659.03
2018-05-26T14:25:15.262Z,98650.71
2018-05-26T14:27:42.097Z,98648.54
2018-05-26T14:30:08.566Z,98642.70
2018-05-26T14:32:34.933Z,98644.75
2018-05-26T14:35:01.446Z,98642.16
2018-05-26T14:37:27.858Z,98635.47
2018-05-26T14:39:54.233Z,98639.66
2018-05-26T14:42:21.335Z,98637.70
2018-05-26T14:44:47.942Z,98638.92
2018-05-26T14:47:15.401Z,98642.13
2018-05-26T14:49:42.654Z,98647.06
2018-05-26T14:52:09.782Z,98652.58
2018-05-26T14:54:36.893Z,98648.79
2018-05-26T14:57:04.189Z,98654.66
2018-05-26T14:59:30.565Z,98645.87
2018-05-26T15:01:57.043Z,98646.53
2018-05-26T15:04:23.417Z,98645.06
2018-05-26T15:06:49.890Z,98651.27
2018-05-26T15:09:16.518Z,98647.98
2018-05-26T15:11:42.917Z,98647.13
2018-05-26T15:14:09.305Z,98642.78
2018-05-26T15:16:36.093Z,98649.73
2018-05-26T15:19:02.482Z,98648.38
2018-05-26T15:21:28.863Z,98645.17
2018-05-26T15:23:55.386Z,98638.06
2018-05-26T15:26:21.779Z,98635.59
2018-05-26T15:28:48.143Z,98639.56
2018-05-26T15:31:14.881Z,98637.97
2018-05-26T15:33:41.264Z,98637.70
2018-05-26T15:36:07.682Z,98634.00
2018-05-26T15:38:34.400Z,98635.13
2018-05-26T15:41:00.790Z,98639.51
2018-05-26T15:43:27.558Z,98640.39
2018-05-26T15:45:54.645Z,98644.75
2018-05-26T15:48:21.246Z,98639.14
2018-05-26T15:50:47.601Z,98626.98
2018-05-26T15:53:13.979Z,98624.85
2018-05-26T15:55:40.413Z,98622.02
2018-05-26T15:58:06.981Z,98616.59
2018-05-26T16:00:33.341Z,98615.26
2018-05-26T16:03:00.700Z,98603.95
2018-05-26T16:05:27.068Z,98596.75
2018-05-26T16:07:54.216Z,98598.00
2018-05-26T16:10:20.733Z,98595.50
2018-05-26T16:12:47.114Z,98593.08
2018-05-26T16:15:13.553Z,98600.94
2018-05-26T16:17:40.588Z,98594.87
2018-05-26T16:20:08.065Z,98596.31
2018-05-26T16:22:34.421Z,98595.78
2018-05-26T16:25:00.770Z,98593.52
2018-05-26T16:27:27.127Z,98587.98
2018-05-26T16:29:54.278Z,98591.35
2018-05-26T16:32:21.440Z,98590.97
2018-05-26T16:34:47.864Z,98593.50
2018-05-26T16:37:14.978Z,98592.23
2018-05-26T16:39:41.420Z,98591.30
2018-05-26T16:42:07.868Z,98597.46
2018-05-26T16:44:35.130Z,98593.95
2018-05-26T16:47:02.241Z,98597.45
2018-05-26T16:49:28.745Z,98591.77
2018-05-26T16:51:55.152Z,98596.38
2018-05-26T16:54:22.603Z,98596.02
2018-05-26T16:56:49.960Z,98599.27
2018-05-26T16:59:17.053Z,98601.09
2018-05-26T17:01:43.413Z,98604.67
2018-05-26T17:04:09.786Z,98603.06
2018-05-26T17:06:36.202Z,98606.73
2018-05-26T17:09:03.407Z,98604.81
2018-05-26T17:11:29.798Z,98610.64
2018-05-26T17:13:56.191Z,98606.27
2018-05-26T17:16:23.337Z,98605.44
2018-05-26T17:18:49.735Z,98604.30
2018-05-26T17:21:16.134Z,98608.80
2018-05-26T17:23:43.233Z,98612.44
2018-05-26T17:26:09.594Z,98613.77
2018-05-26T17:28:35.949Z,98616.13
2018-05-26T17:31:02.340Z,98621.01
2018-05-26T17:33:28.742Z,98617.80
2018-05-26T17:35:55.117Z,98620.58
2018-05-26T17:38:21.491Z,98627.20
2018-05-26T17:40:47.912Z,98635.80
2018-05-26T17:43:14.283Z,98632.48
2018-05-26T17:45:40.673Z,98633.88
2018-05-26T17:48:07.053Z,98625.41
2018-05-26T17:50:33.474Z,98631.17
2018-05-26T17:52:59.846Z,98625.73
2018-05-26T17:55:27.004Z,98627.47
2018-05-26T17:57:54.130Z,98629.31
2018-05-26T18:00:21.422Z,98639.71
2018-05-26T18:02:47.805Z,98639.45
2018-05-26T18:05:14.236Z,98640.39
2018-05-26T18:07:40.600Z,98641.87
2018-05-26T18:10:07.734Z,98645.48
2018-05-26T18:12:34.949Z,98650.19
2018-05-26T18:15:01.391Z,98652.69
2018-05-26T18:17:28.534Z,98652.08
2018-05-26T18:19:54.992Z,98654.28
2018-05-26T18:22:21.450Z,98655.27
2018-05-26T18:24:48.575Z,98660.14
2018-05-26T18:27:15.038Z,98658.58
2018-05-26T18:29:42.335Z,98662.77
2018-05-26T18:32:08.753Z,98663.09
2018-05-26T18:34:35.311Z,98662.63
2018-05-26T18:37:01.684Z,98664.02
2018-05-26T18:39:28.834Z,98663.66
2018-05-26T18:41:55.956Z,98662.46
2018-05-26T18:44:22.326Z,98663.66
2018-05-26T18:46:49.459Z,98663.95
2018-05-26T18:49:16.754Z,98665.90
2018-05-26T18:51:43.100Z,98675.16
2018-05-26T18:54:09.489Z,98670.31
2018-05-26T18:56:36.676Z,98675.14
2018-05-26T18:59:03.033Z,98679.48
2018-05-26T19:01:29.433Z,98675.11
2018-05-26T19:03:55.797Z,98686.27
2018-05-26T19:06:22.181Z,98682.42
2018-05-26T19:08:48.601Z,98689.75
2018-05-26T19:11:15.752Z,98692.06
2018-05-26T19:13:42.878Z,98694.06
2018-05-26T19:16:09.223Z,98692.88
2018-05-26T19:18:36.381Z,98694.00
2018-05-26T19:21:02.799Z,98691.30
2018-05-26T19:23:30.167Z,98692.90
2018-05-26T19:25:57.305Z,98700.93
2018-05-26T19:28:31.391Z,98694.22
2018-05-26T19:30:57.844Z,98706.46
2018-05-26T19:33:24.173Z,98708.37
2018-05-26T19:35:50.834Z,98712.10
2018-05-26T19:38:18.185Z,98718.05
2018-05-26T19:40:45.405Z,98723.61
2018-05-26T19:43:11.817Z,98730.50
2018-05-26T19:45:38.304Z,98738.07
2018-05-26T19:48:05.407Z,98727.67
2018-05-26T19:50:31.866Z,98732.18
2018-05-26T19:52:58.965Z,98738.75
2018-05-26T19:55:25.369Z,98741.03
2018-05-26T19:57:52.494Z,98746.59
2018-05-26T20:00:19.638Z,98744.17
2018-05-26T20:02:46.415Z,98745.25
2018-05-26T20:05:12.790Z,98749.53
2018-05-26T20:07:39.190Z,98753.70
2018-05-26T20:10:05.588Z,98751.56
2018-05-26T20:12:32.788Z,98750.04
2018-05-26T20:14:59.167Z,98755.73
2018-05-26T20:17:26.295Z,98753.98
2018-05-26T20:19:52.972Z,98750.73
2018-05-26T20:22:20.207Z,98738.83
2018-05-26T20:24:47.350Z,98741.66
2018-05-26T20:29:47.739Z,98737.77
2018-05-26T20:32:14.151Z,98731.41
2018-05-26T20:37:12.857Z,98734.13
2018-05-26T20:39:39.241Z,98734.09
2018-05-26T20:42:05.698Z,98731.85
2018-05-26T20:44:33.183Z,98720.47
2018-05-26T20:49:33.614Z,98720.23
2018-05-26T20:52:00.779Z,98718.83
2018-05-26T20:54:27.187Z,98730.23
2018-05-26T20:56:54.365Z,98726.02
2018-05-26T20:59:20.730Z,98727.74
2018-05-26T21:01:47.160Z,98726.57
2018-05-26T21:04:13.603Z,98722.88
2018-05-26T21:06:40.746Z,98724.33
2018-05-26T21:09:07.608Z,98728.66
2018-05-26T21:11:33.951Z,98731.91
2018-05-26T21:14:01.176Z,98724.77
2018-05-26T21:16:27.685Z,98725.97
2018-05-26T21:18:54.077Z,98726.70
2018-05-26T21:21:21.397Z,98724.38
2018-05-26T21:23:48.046Z,98721.29
2018-05-26T21:26:14.509Z,98726.89
2018-05-26T21:28:41.656Z,98725.62
2018-05-26T21:31:08.825Z,98723.27
2018-05-26T21:33:35.274Z,98723.95
2018-05-26T21:36:01.885Z,98728.23
2018-05-26T21:38:29.029Z,98720.00
2018-05-26T21:40:56.191Z,98721.19
2018-05-26T21:43:22.690Z,98714.98
2018-05-26T21:45:49.121Z,98716.81
2018-05-26T21:48:15.605Z,98714.94
2018-05-26T21:50:42.126Z,98721.64
2018-05-26T21:53:08.481Z,98714.09
2018-05-26T21:55:35.020Z,98712.37
2018-05-26T21:58:01.750Z,98711.88
2018-05-26T22:00:28.191Z,98713.43
2018-05-26T22:02:54.601Z,98719.97
2018-05-26T22:05:21.073Z,98722.53
2018-05-26T22:07:47.455Z,98732.80
2018-05-26T22:10:14.577Z,98730.75
2018-05-26T22:12:41.036Z,98737.72
2018-05-26T22:15:08.886Z,98740.96
2018-05-26T22:17:36.031Z,98742.55
2018-05-26T22:20:02.457Z,98741.57
2018-05-26T22:22:28.839Z,98747.70
2018-05-26T22:24:55.242Z,98753.14
2018-05-26T22:27:22.361Z,98754.86
2018-05-26T22:29:50.246Z,98754.10
2018-05-26T22:32:17.359Z,98760.82
2018-05-26T22:34:43.795Z,98763.48
2018-05-26T22:37:10.215Z,98769.03
2018-05-26T22:39:37.382Z,98777.17
2018-05-26T22:42:04.946Z,98781.94
2018-05-26T22:44:32.861Z,98782.50
2018-05-26T22:47:01.343Z,98784.39
2018-05-26T22:49:29.388Z,98788.38
2018-05-26T22:51:57.654Z,98781.74
2018-05-26T22:54:25.705Z,98783.06
2018-05-26T22:56:52.425Z,98780.94
2018-05-26T22:59:18.822Z,98782.42
2018-05-26T23:01:46.011Z,98785.77
2018-05-26T23:04:12.407Z,98778.00
2018-05-26T23:06:39.621Z,98779.16
2018-05-26T23:09:06.225Z,98769.57
2018-05-26T23:11:32.594Z,98767.61
2018-05-26T23:13:59.014Z,98759.44
2018-05-26T23:16:25.703Z,98759.55
2018-05-26T23:18:52.151Z,98748.35
2018-05-26T23:21:18.574Z,98749.48
2018-05-26T23:23:44.949Z,98753.30
2018-05-26T23:26:11.635Z,98745.64
2018-05-26T23:28:38.778Z,98742.19
2018-05-26T23:31:06.366Z,98730.89
2018-05-26T23:33:32.781Z,98726.08
2018-05-26T23:35:59.145Z,98722.39
2018-05-26T23:38:26.297Z,98721.31
2018-05-26T23:40:52.899Z,98725.44
2018-05-26T23:43:19.286Z,98718.36
2018-05-26T23:45:45.966Z,98714.28
2018-05-26T23:48:13.069Z,98712.23
2018-05-26T23:50:39.506Z,98706.26
2018-05-26T23:53:06.049Z,98701.91
2018-05-26T23:55:34.153Z,98693.98
2018-05-26T23:58:01.282Z,98697.34
